createdAt,value
2018-07-30T00:02:17.225Z,7.53
2018-07-30T00:04:45.828Z,8.23
2018-07-30T00:07:14.381Z,8.40
2018-07-30T00:09:42.949Z,7.80
2018-07-30T00:12:11.585Z,8.30
2018-07-30T00:14:40.131Z,8.03
2018-07-30T00:17:08.792Z,8.13
2018-07-30T00:19:39.453Z,7.90
2018-07-30T00:22:07.995Z,7.97
2018-07-30T00:24:36.488Z,8.07
2018-07-30T00:27:05.065Z,7.73
2018-07-30T00:29:33.621Z,8.03
2018-07-30T00:32:02.162Z,8.00
2018-07-30T00:34:30.715Z,8.77
2018-07-30T00:36:59.234Z,7.70
2018-07-30T00:39:27.820Z,8.10
2018-07-30T00:41:56.406Z,8.50
2018-07-30T00:44:24.923Z,8.63
2018-07-30T00:46:53.535Z,8.00
2018-07-30T00:49:25.889Z,8.00
2018-07-30T00:51:55.169Z,8.57
2018-07-30T00:54:23.719Z,8.40
2018-07-30T00:56:52.329Z,8.77
2018-07-30T00:59:20.809Z,8.60
2018-07-30T01:01:49.352Z,8.57
2018-07-30T01:04:17.841Z,9.40
2018-07-30T01:06:46.437Z,8.40
2018-07-30T01:09:14.956Z,8.50
2018-07-30T01:11:43.528Z,8.70
2018-07-30T01:14:14.779Z,8.73
2018-07-30T01:16:44.099Z,8.37
2018-07-30T01:19:12.705Z,9.30
2018-07-30T01:21:41.772Z,8.50
2018-07-30T01:24:20.633Z,9.13
2018-07-30T01:26:49.165Z,9.07
2018-07-30T01:29:17.703Z,8.93
2018-07-30T01:31:46.272Z,8.90
2018-07-30T01:34:21.910Z,9.17
2018-07-30T01:36:50.635Z,9.23
2018-07-30T01:39:19.121Z,8.63
2018-07-30T01:41:47.790Z,9.27
2018-07-30T01:44:16.489Z,8.50
2018-07-30T01:46:45.058Z,8.70
2018-07-30T01:49:13.553Z,9.50
2018-07-30T01:51:42.100Z,8.57
2018-07-30T01:54:10.740Z,9.03
2018-07-30T01:56:39.242Z,10.10
2018-07-30T01:59:07.819Z,9.00
2018-07-30T02:01:36.271Z,9.87
2018-07-30T02:04:04.839Z,8.73
2018-07-30T02:06:33.396Z,8.60
2018-07-30T02:09:02.211Z,8.87
2018-07-30T02:11:30.772Z,10.13
2018-07-30T02:13:59.264Z,9.37
2018-07-30T02:16:27.862Z,9.60
2018-07-30T02:19:00.943Z,8.90
2018-07-30T02:21:29.560Z,8.90
2018-07-30T02:23:58.128Z,9.10
2018-07-30T02:26:26.738Z,9.60
2018-07-30T02:28:55.325Z,9.43
2018-07-30T02:31:23.924Z,9.20
2018-07-30T02:33:52.486Z,9.37
2018-07-30T02:36:21.120Z,9.77
2018-07-30T02:38:49.638Z,8.83
2018-07-30T02:41:18.226Z,9.80
2018-07-30T02:43:46.773Z,9.10
2018-07-30T02:46:15.518Z,9.47
2018-07-30T02:48:44.028Z,9.87
2018-07-30T02:51:12.609Z,9.60
2018-07-30T02:53:40.793Z,8.97
2018-07-30T02:56:09.400Z,10.20
2018-07-30T02:58:39.044Z,9.80
2018-07-30T03:01:07.733Z,9.47
2018-07-30T03:03:36.249Z,9.30
2018-07-30T03:06:04.808Z,9.77
2018-07-30T03:08:38.153Z,10.20
2018-07-30T03:11:06.791Z,9.43
2018-07-30T03:13:35.325Z,9.00
2018-07-30T03:16:03.940Z,8.67
2018-07-30T03:18:32.499Z,10.07
2018-07-30T03:21:01.045Z,9.90
2018-07-30T03:23:30.699Z,10.00
2018-07-30T03:25:59.265Z,10.20
2018-07-30T03:28:27.828Z,10.90
2018-07-30T03:30:56.418Z,9.80
2018-07-30T03:33:27.049Z,9.70
2018-07-30T03:35:55.671Z,8.80
2018-07-30T03:38:24.210Z,9.93
2018-07-30T03:40:52.804Z,9.40
2018-07-30T03:43:21.435Z,10.43
2018-07-30T03:45:53.701Z,10.17
2018-07-30T03:48:22.228Z,9.77
2018-07-30T03:50:50.734Z,9.87
2018-07-30T03:53:19.279Z,10.00
2018-07-30T03:55:47.950Z,9.93
2018-07-30T03:58:16.589Z,9.83
2018-07-30T04:00:45.201Z,10.90
2018-07-30T04:03:13.737Z,9.40
2018-07-30T04:05:42.327Z,9.50
2018-07-30T04:08:10.892Z,9.57
2018-07-30T04:10:39.498Z,9.33
2018-07-30T04:13:08.099Z,10.50
2018-07-30T04:15:36.655Z,10.00
2018-07-30T04:18:05.346Z,11.10
2018-07-30T04:20:33.849Z,9.80
2018-07-30T04:23:04.484Z,9.97
2018-07-30T04:25:32.981Z,10.40
2018-07-30T04:28:01.603Z,10.30
2018-07-30T04:30:30.106Z,9.53
2018-07-30T04:32:58.675Z,11.27
2018-07-30T04:35:27.290Z,10.60
2018-07-30T04:37:55.789Z,10.80
2018-07-30T04:40:24.623Z,10.80
2018-07-30T04:42:53.357Z,9.50
2018-07-30T04:45:22.147Z,12.80
2018-07-30T04:47:50.931Z,11.20
2018-07-30T04:50:19.623Z,10.63
2018-07-30T04:52:48.430Z,10.07
2018-07-30T04:55:17.304Z,9.37
2018-07-30T04:57:46.089Z,10.37
2018-07-30T05:00:14.703Z,10.30
2018-07-30T05:02:43.358Z,10.50
2018-07-30T05:05:12.099Z,9.80
2018-07-30T05:07:40.850Z,9.70
2018-07-30T05:10:09.684Z,10.70
2018-07-30T05:12:38.478Z,14.30
2018-07-30T05:15:07.409Z,12.70
2018-07-30T05:17:35.905Z,11.57
2018-07-30T05:20:04.696Z,10.80
2018-07-30T05:22:33.308Z,10.70
2018-07-30T05:25:01.578Z,11.07
2018-07-30T05:27:30.291Z,11.27
2018-07-30T05:29:58.769Z,11.40
2018-07-30T05:32:27.251Z,12.40
2018-07-30T05:34:55.903Z,15.10
2018-07-30T05:37:24.462Z,14.00
2018-07-30T05:39:53.230Z,12.90
2018-07-30T05:42:21.745Z,11.63
2018-07-30T05:44:50.348Z,12.70
2018-07-30T05:47:18.945Z,14.03
2018-07-30T05:49:47.458Z,13.20
2018-07-30T05:52:15.974Z,14.10
2018-07-30T05:54:44.494Z,15.13
2018-07-30T05:57:13.040Z,12.40
2018-07-30T05:59:41.571Z,12.20
2018-07-30T06:02:10.068Z,12.17
2018-07-30T06:04:38.685Z,12.50
2018-07-30T06:07:07.278Z,11.10
2018-07-30T06:09:35.834Z,18.17
2018-07-30T06:12:04.436Z,11.43
2018-07-30T06:14:32.988Z,12.17
2018-07-30T06:17:01.558Z,10.53
2018-07-30T06:19:30.079Z,12.13
2018-07-30T06:21:58.749Z,11.73
2018-07-30T06:24:27.348Z,11.03
2018-07-30T06:26:55.872Z,10.43
2018-07-30T06:29:24.393Z,10.90
2018-07-30T06:31:52.993Z,11.23
2018-07-30T06:34:21.453Z,11.47
2018-07-30T06:36:50.087Z,10.70
2018-07-30T06:39:18.649Z,11.73
2018-07-30T06:41:49.307Z,11.07
2018-07-30T06:44:17.906Z,10.33
2018-07-30T06:46:46.432Z,9.70
2018-07-30T06:49:14.917Z,9.73
2018-07-30T06:51:43.442Z,10.53
2018-07-30T06:54:11.971Z,11.13
2018-07-30T06:56:40.549Z,10.53
2018-07-30T06:59:09.109Z,11.37
2018-07-30T07:01:37.676Z,10.43
2018-07-30T07:04:06.707Z,11.00
2018-07-30T07:06:35.742Z,9.90
2018-07-30T07:09:06.497Z,9.33
2018-07-30T07:11:35.033Z,9.77
2018-07-30T07:14:03.523Z,9.67
2018-07-30T07:16:32.100Z,9.63
2018-07-30T07:19:00.629Z,9.83
2018-07-30T07:21:28.870Z,10.00
2018-07-30T07:23:57.372Z,9.53
2018-07-30T07:26:25.947Z,8.90
2018-07-30T07:28:54.675Z,9.60
2018-07-30T07:31:23.311Z,10.30
2018-07-30T07:33:51.901Z,9.30
2018-07-30T07:36:20.438Z,9.47
2018-07-30T07:38:48.934Z,9.50
2018-07-30T07:41:17.525Z,10.20
2018-07-30T07:43:46.140Z,9.33
2018-07-30T07:46:14.693Z,9.60
2018-07-30T07:48:43.357Z,9.93
2018-07-30T07:51:11.827Z,9.37
2018-07-30T07:53:49.905Z,8.97
2018-07-30T07:56:18.497Z,9.63
2018-07-30T07:58:46.749Z,8.40
2018-07-30T08:01:15.292Z,8.97
2018-07-30T08:03:44.830Z,10.33
2018-07-30T08:06:13.540Z,10.20
2018-07-30T08:08:42.071Z,9.23
2018-07-30T08:11:20.535Z,9.00
2018-07-30T08:13:49.059Z,8.80
2018-07-30T08:16:17.677Z,9.23
2018-07-30T08:18:46.199Z,8.53
2018-07-30T08:21:14.393Z,8.43
2018-07-30T08:23:43.017Z,10.27
2018-07-30T08:26:11.633Z,8.67
2018-07-30T08:28:40.163Z,9.90
2018-07-30T08:31:08.743Z,8.80
2018-07-30T08:33:37.240Z,8.57
2018-07-30T08:36:05.860Z,9.37
2018-07-30T08:38:34.462Z,8.63
2018-07-30T08:41:02.977Z,9.17
2018-07-30T08:43:31.523Z,7.97
2018-07-30T08:45:59.976Z,8.27
2018-07-30T08:48:28.513Z,8.30
2018-07-30T08:50:57.119Z,7.67
2018-07-30T08:53:25.651Z,8.07
2018-07-30T08:55:54.157Z,8.97
2018-07-30T08:58:22.752Z,8.30
2018-07-30T09:00:51.328Z,8.37
2018-07-30T09:03:20.946Z,8.20
2018-07-30T09:05:49.371Z,7.93
2018-07-30T09:08:17.929Z,7.83
2018-07-30T09:10:46.440Z,7.90
2018-07-30T09:13:14.668Z,7.87
2018-07-30T09:15:43.215Z,8.70
2018-07-30T09:18:11.835Z,8.43
2018-07-30T09:20:40.335Z,7.80
2018-07-30T09:23:08.873Z,8.70
2018-07-30T09:25:37.397Z,8.33
2018-07-30T09:28:06.062Z,8.43
2018-07-30T09:30:34.566Z,8.07
2018-07-30T09:33:03.253Z,7.70
2018-07-30T09:35:31.703Z,8.43
2018-07-30T09:38:00.210Z,7.60
2018-07-30T09:40:28.678Z,8.43
2018-07-30T09:42:57.306Z,7.80
2018-07-30T09:45:25.840Z,7.73
2018-07-30T09:47:54.397Z,8.00
2018-07-30T09:50:22.940Z,7.40
2018-07-30T09:52:51.490Z,7.70
2018-07-30T09:55:20.089Z,6.53
2018-07-30T09:57:49.770Z,7.37
2018-07-30T10:00:23.663Z,6.53
2018-07-30T10:02:52.213Z,6.50
2018-07-30T10:05:20.823Z,8.10
2018-07-30T10:07:49.327Z,6.80
2018-07-30T10:10:17.871Z,6.97
2018-07-30T10:12:46.375Z,6.73
2018-07-30T10:15:15.065Z,6.67
2018-07-30T10:17:43.680Z,7.13
2018-07-30T10:20:12.295Z,7.17
2018-07-30T10:22:40.799Z,7.70
2018-07-30T10:25:09.364Z,7.20
2018-07-30T10:27:37.964Z,7.00
2018-07-30T10:30:07.006Z,7.00
2018-07-30T10:32:35.521Z,6.57
2018-07-30T10:35:04.292Z,6.60
2018-07-30T10:37:40.990Z,6.63
2018-07-30T10:40:09.568Z,6.60
2018-07-30T10:42:38.088Z,5.57
2018-07-30T10:45:06.606Z,5.80
2018-07-30T10:47:35.177Z,6.10
2018-07-30T10:50:04.148Z,7.03
2018-07-30T10:52:32.816Z,5.90
2018-07-30T10:55:01.425Z,6.70
2018-07-30T10:57:29.928Z,6.30
2018-07-30T10:59:58.465Z,6.50
2018-07-30T11:02:27.033Z,6.50
2018-07-30T11:04:55.546Z,6.90
2018-07-30T11:07:24.040Z,6.40
2018-07-30T11:09:52.557Z,6.40
2018-07-30T11:12:21.055Z,6.13
2018-07-30T11:14:49.677Z,5.33
2018-07-30T11:17:18.224Z,5.60
2018-07-30T11:19:46.799Z,5.67
2018-07-30T11:22:15.340Z,6.43
2018-07-30T11:24:43.815Z,5.90
2018-07-30T11:27:12.326Z,5.80
2018-07-30T11:29:40.902Z,5.13
2018-07-30T11:32:09.457Z,6.17
2018-07-30T11:34:38.049Z,6.13
2018-07-30T11:37:08.681Z,5.43
2018-07-30T11:39:37.192Z,6.33
2018-07-30T11:42:06.016Z,6.10
2018-07-30T11:44:34.235Z,6.00
2018-07-30T11:47:02.768Z,6.03
2018-07-30T11:49:31.268Z,5.90
2018-07-30T11:51:59.802Z,5.30
2018-07-30T11:54:28.417Z,6.10
2018-07-30T11:56:56.813Z,5.73
2018-07-30T11:59:25.426Z,6.13
2018-07-30T12:01:54.011Z,5.63
2018-07-30T12:04:22.809Z,6.23
2018-07-30T12:06:51.263Z,6.40
2018-07-30T12:09:19.820Z,5.90
2018-07-30T12:11:48.371Z,5.80
2018-07-30T12:14:16.902Z,6.30
2018-07-30T12:16:45.425Z,5.90
2018-07-30T12:19:14.113Z,6.43
2018-07-30T12:21:42.657Z,6.47
2018-07-30T12:24:11.213Z,6.50
2018-07-30T12:26:39.760Z,6.17
2018-07-30T12:29:08.280Z,6.53
2018-07-30T12:31:36.868Z,6.50
2018-07-30T12:34:05.479Z,6.00
2018-07-30T12:36:34.118Z,6.03
2018-07-30T12:39:02.659Z,6.13
2018-07-30T12:41:31.285Z,6.10
2018-07-30T12:43:59.784Z,6.50
2018-07-30T12:46:28.238Z,6.10
2018-07-30T12:49:04.067Z,6.60
2018-07-30T12:51:32.550Z,6.27
2018-07-30T12:54:01.140Z,6.70
2018-07-30T12:56:29.647Z,6.90
2018-07-30T12:58:58.223Z,6.60
2018-07-30T13:01:26.793Z,6.00
2018-07-30T13:03:55.316Z,5.90
2018-07-30T13:06:23.854Z,6.70
2018-07-30T13:08:52.453Z,6.23
2018-07-30T13:11:23.137Z,5.67
2018-07-30T13:13:51.951Z,6.00
2018-07-30T13:16:20.448Z,6.50
2018-07-30T13:18:48.992Z,7.17
2018-07-30T13:21:17.579Z,6.33
2018-07-30T13:23:46.105Z,6.47
2018-07-30T13:26:14.704Z,6.50
2018-07-30T13:28:43.229Z,5.73
2018-07-30T13:31:11.858Z,6.53
2018-07-30T13:33:42.362Z,6.80
2018-07-30T13:36:10.851Z,6.30
2018-07-30T13:38:39.476Z,5.73
2018-07-30T13:41:08.031Z,5.90
2018-07-30T13:43:36.542Z,6.50
2018-07-30T13:46:05.167Z,5.80
2018-07-30T13:48:33.713Z,6.37
2018-07-30T13:51:01.872Z,6.80
2018-07-30T13:53:30.362Z,6.40
2018-07-30T13:55:58.902Z,6.40
2018-07-30T13:58:27.508Z,6.70
2018-07-30T14:00:56.017Z,6.60
2018-07-30T14:03:26.660Z,6.47
2018-07-30T14:05:56.312Z,6.13
2018-07-30T14:08:24.786Z,6.10
2018-07-30T14:10:53.408Z,6.53
2018-07-30T14:13:21.903Z,6.70
2018-07-30T14:15:50.447Z,6.73
2018-07-30T14:18:19.009Z,7.07
2018-07-30T14:20:47.602Z,6.30
2018-07-30T14:23:16.187Z,6.47
2018-07-30T14:25:44.815Z,6.20
2018-07-30T14:28:13.403Z,6.30
2018-07-30T14:30:41.923Z,6.20
2018-07-30T14:33:10.533Z,6.37
2018-07-30T14:35:39.025Z,5.73
2018-07-30T14:38:15.633Z,6.20
2018-07-30T14:40:44.203Z,6.43
2018-07-30T14:43:13.822Z,6.70
2018-07-30T14:45:42.025Z,6.57
2018-07-30T14:48:10.578Z,7.40
2018-07-30T14:50:39.831Z,6.10
2018-07-30T14:53:08.346Z,6.67
2018-07-30T14:55:41.789Z,6.93
2018-07-30T14:58:10.385Z,7.43
2018-07-30T15:00:38.919Z,7.33
2018-07-30T15:03:07.124Z,5.83
2018-07-30T15:05:35.757Z,6.80
2018-07-30T15:08:11.035Z,6.17
2018-07-30T15:10:39.570Z,6.80
2018-07-30T15:13:08.145Z,6.80
2018-07-30T15:15:36.746Z,6.23
2018-07-30T15:18:05.273Z,6.30
2018-07-30T15:20:33.817Z,6.30
2018-07-30T15:23:02.352Z,6.37
2018-07-30T15:25:30.992Z,6.27
2018-07-30T15:27:59.500Z,6.40
2018-07-30T15:30:28.021Z,7.30
2018-07-30T15:32:56.577Z,6.30
2018-07-30T15:35:25.160Z,6.43
2018-07-30T15:37:53.659Z,6.47
2018-07-30T15:40:22.194Z,6.80
2018-07-30T15:42:50.482Z,6.43
2018-07-30T15:45:18.650Z,6.60
2018-07-30T15:47:47.391Z,6.53
2018-07-30T15:50:15.862Z,6.63
2018-07-30T15:52:44.511Z,6.67
2018-07-30T15:55:12.702Z,6.93
2018-07-30T15:57:41.222Z,6.03
2018-07-30T16:00:10.537Z,6.97
2018-07-30T16:02:40.165Z,6.23
2018-07-30T16:05:10.422Z,6.87
2018-07-30T16:07:38.945Z,6.63
2018-07-30T16:10:07.536Z,7.10
2018-07-30T16:12:36.145Z,6.40
2018-07-30T16:15:05.420Z,6.10
2018-07-30T16:17:33.959Z,6.97
2018-07-30T16:20:02.453Z,6.63
2018-07-30T16:22:31.199Z,8.40
2018-07-30T16:24:59.694Z,9.57
2018-07-30T16:27:28.308Z,6.43
2018-07-30T16:29:56.824Z,6.70
2018-07-30T16:32:25.409Z,6.90
2018-07-30T16:34:53.950Z,6.13
2018-07-30T16:37:22.540Z,6.63
2018-07-30T16:39:51.001Z,6.20
2018-07-30T16:42:19.642Z,6.50
2018-07-30T16:44:48.152Z,7.07
2018-07-30T16:47:16.701Z,6.60
2018-07-30T16:49:45.291Z,6.33
2018-07-30T16:52:14.961Z,6.23
2018-07-30T16:54:44.600Z,7.00
2018-07-30T16:57:13.115Z,6.60
2018-07-30T16:59:41.692Z,7.17
2018-07-30T17:02:10.200Z,7.10
2018-07-30T17:04:38.809Z,6.40
2018-07-30T17:07:07.345Z,6.70
2018-07-30T17:09:35.824Z,7.07
2018-07-30T17:12:04.408Z,6.40
2018-07-30T17:14:32.982Z,6.33
2018-07-30T17:17:02.634Z,6.10
2018-07-30T17:19:31.423Z,5.80
2018-07-30T17:22:00.071Z,6.50
2018-07-30T17:24:29.401Z,6.47
2018-07-30T17:26:57.883Z,6.40
2018-07-30T17:29:26.412Z,6.00
2018-07-30T17:31:54.947Z,6.67
2018-07-30T17:34:23.567Z,6.77
2018-07-30T17:36:52.078Z,6.73
2018-07-30T17:39:20.663Z,6.03
2018-07-30T17:41:49.272Z,6.10
2018-07-30T17:44:17.786Z,6.30
2018-07-30T17:46:46.285Z,6.60
2018-07-30T17:49:14.866Z,6.43
2018-07-30T17:51:45.593Z,6.67
2018-07-30T17:54:14.230Z,6.13
2018-07-30T17:56:42.885Z,6.50
2018-07-30T17:59:11.459Z,6.33
2018-07-30T18:01:39.945Z,6.53
2018-07-30T18:04:08.596Z,6.90
2018-07-30T18:06:38.231Z,7.23
2018-07-30T18:09:08.634Z,6.80
2018-07-30T18:11:37.420Z,6.40
2018-07-30T18:14:06.005Z,6.77
2018-07-30T18:16:34.567Z,7.00
2018-07-30T18:19:03.226Z,6.90
2018-07-30T18:21:31.737Z,7.63
2018-07-30T18:24:01.328Z,6.70
2018-07-30T18:26:31.926Z,7.13
2018-07-30T18:29:00.432Z,7.60
2018-07-30T18:31:30.699Z,6.90
2018-07-30T18:33:59.463Z,7.20
2018-07-30T18:36:28.009Z,7.00
2018-07-30T18:38:56.611Z,7.13
2018-07-30T18:41:25.165Z,7.10
2018-07-30T18:43:54.796Z,7.43
2018-07-30T18:46:23.313Z,6.93
2018-07-30T18:48:58.759Z,7.50
2018-07-30T18:51:27.552Z,7.07
2018-07-30T18:53:56.151Z,7.67
2018-07-30T18:56:24.813Z,6.93
2018-07-30T18:58:53.346Z,7.30
2018-07-30T19:01:21.911Z,7.03
2018-07-30T19:03:51.684Z,7.33
2018-07-30T19:06:20.573Z,6.53
2018-07-30T19:08:49.415Z,8.43
2018-07-30T19:11:19.289Z,6.67
2018-07-30T19:13:48.999Z,7.43
2018-07-30T19:16:21.622Z,6.50
2018-07-30T19:18:50.724Z,7.13
2018-07-30T19:21:19.398Z,7.87
2018-07-30T19:23:48.089Z,6.43
2018-07-30T19:26:16.820Z,7.07
2018-07-30T19:28:45.515Z,7.47
2018-07-30T19:31:14.284Z,7.70
2018-07-30T19:33:43.017Z,6.33
2018-07-30T19:36:11.653Z,6.63
2018-07-30T19:38:40.547Z,6.30
2018-07-30T19:41:09.177Z,7.30
2018-07-30T19:43:38.785Z,7.80
2018-07-30T19:46:07.350Z,7.47
2018-07-30T19:48:35.881Z,7.40
2018-07-30T19:51:04.455Z,6.83
2018-07-30T19:53:33.145Z,6.70
2018-07-30T19:56:01.659Z,7.10
2018-07-30T19:58:30.354Z,6.97
2018-07-30T20:00:58.853Z,7.93
2018-07-30T20:03:27.344Z,6.60
2018-07-30T20:05:55.983Z,7.50
2018-07-30T20:08:24.563Z,7.60
2018-07-30T20:10:53.085Z,9.23
2018-07-30T20:13:21.691Z,8.47
2018-07-30T20:15:50.274Z,12.40
2018-07-30T20:18:18.732Z,8.60
2018-07-30T20:20:47.339Z,7.87
2018-07-30T20:23:15.899Z,7.57
2018-07-30T20:25:44.482Z,7.93
2018-07-30T20:28:12.985Z,7.17
2018-07-30T20:30:41.647Z,6.90
2018-07-30T20:33:10.227Z,7.17
2018-07-30T20:35:38.869Z,6.63
2018-07-30T20:38:07.068Z,7.20
2018-07-30T20:40:35.616Z,7.23
2018-07-30T20:43:04.181Z,7.20
2018-07-30T20:45:32.716Z,7.87
2018-07-30T20:48:01.274Z,6.30
2018-07-30T20:50:29.847Z,6.97
2018-07-30T20:52:58.458Z,6.83
2018-07-30T20:55:27.996Z,7.10
2018-07-30T20:57:56.512Z,7.10
2018-07-30T21:00:25.041Z,6.50
2018-07-30T21:02:53.609Z,8.20
2018-07-30T21:05:28.428Z,7.30
2018-07-30T21:07:57.247Z,8.30
2018-07-30T21:10:25.825Z,7.53
2018-07-30T21:12:54.453Z,7.63
2018-07-30T21:15:22.972Z,8.50
2018-07-30T21:17:55.469Z,7.90
2018-07-30T21:20:23.965Z,7.60
2018-07-30T21:22:52.497Z,7.60
2018-07-30T21:25:21.071Z,7.33
2018-07-30T21:27:49.585Z,7.27
2018-07-30T21:30:18.164Z,6.80
2018-07-30T21:32:46.715Z,7.27
2018-07-30T21:35:15.233Z,7.63
2018-07-30T21:37:43.860Z,6.93
2018-07-30T21:40:12.401Z,6.80
2018-07-30T21:42:41.108Z,7.33
2018-07-30T21:45:09.685Z,6.60
2018-07-30T21:47:38.241Z,7.90
2018-07-30T21:50:07.212Z,7.70
2018-07-30T21:52:35.779Z,7.47
2018-07-30T21:55:04.491Z,8.17
2018-07-30T21:57:33.024Z,7.57
2018-07-30T22:00:01.605Z,7.53
2018-07-30T22:02:30.260Z,7.90
2018-07-30T22:04:58.833Z,7.00
2018-07-30T22:07:27.413Z,7.20
2018-07-30T22:09:57.059Z,7.10
2018-07-30T22:12:25.568Z,6.63
2018-07-30T22:14:54.133Z,6.90
2018-07-30T22:17:29.867Z,7.60
2018-07-30T22:19:58.398Z,7.53
2018-07-30T22:22:26.875Z,7.00
2018-07-30T22:24:55.470Z,7.37
2018-07-30T22:27:24.004Z,7.23
2018-07-30T22:29:52.581Z,7.50
2018-07-30T22:32:21.245Z,6.67
2018-07-30T22:34:49.811Z,6.87
2018-07-30T22:37:18.423Z,6.17
2018-07-30T22:39:47.991Z,7.20
2018-07-30T22:42:16.598Z,7.00
2018-07-30T22:44:45.105Z,7.37
2018-07-30T22:47:13.780Z,6.87
2018-07-30T22:49:42.282Z,7.63
2018-07-30T22:52:10.821Z,7.47
2018-07-30T22:54:39.425Z,6.73
2018-07-30T22:57:07.992Z,7.67
2018-07-30T22:59:36.171Z,7.30
2018-07-30T23:02:04.607Z,6.97
2018-07-30T23:04:33.207Z,6.80
2018-07-30T23:07:01.757Z,6.90
2018-07-30T23:09:30.244Z,6.97
2018-07-30T23:11:58.758Z,6.90
2018-07-30T23:14:27.339Z,8.00
2018-07-30T23:16:55.865Z,7.10
2018-07-30T23:19:24.520Z,6.40
2018-07-30T23:21:53.097Z,6.90
2018-07-30T23:24:21.645Z,6.83
2018-07-30T23:26:50.214Z,7.30
2018-07-30T23:29:18.788Z,7.30
2018-07-30T23:31:47.343Z,8.00
2018-07-30T23:34:15.973Z,7.90
2018-07-30T23:36:44.622Z,6.93
2018-07-30T23:39:13.090Z,7.80
2018-07-30T23:41:41.714Z,7.77
2018-07-30T23:44:10.432Z,7.80
2018-07-30T23:46:39.071Z,8.60
2018-07-30T23:49:07.655Z,7.83
2018-07-30T23:51:35.786Z,8.43
2018-07-30T23:54:04.383Z,7.07
2018-07-30T23:56:32.993Z,8.50
2018-07-30T23:59:01.635Z,8.43
